sensor_id;sensor_type;location;lat;lon;timestamp;pressure;altitude;pressure_sealevel;temperature;humidity
69772;BME280;57046;45.988;18.664;2023-12-28T00:01:43;101619.16;;;5.97;79.15
69772;BME280;57046;45.988;18.664;2023-12-28T00:04:08;101625.31;;;5.98;79.17
69772;BME280;57046;45.988;18.664;2023-12-28T00:06:34;101622.38;;;5.99;78.92
69772;BME280;57046;45.988;18.664;2023-12-28T00:08:59;101619.69;;;5.99;79.39
69772;BME280;57046;45.988;18.664;2023-12-28T00:11:24;101620.78;;;5.98;80.04
69772;BME280;57046;45.988;18.664;2023-12-28T00:13:50;101628.31;;;6.06;79.85
69772;BME280;57046;45.988;18.664;2023-12-28T00:16:15;101624.03;;;6.05;80.01
69772;BME280;57046;45.988;18.664;2023-12-28T00:18:40;101617.31;;;6.08;79.82
69772;BME280;57046;45.988;18.664;2023-12-28T00:21:06;101619.72;;;6.04;80.21
69772;BME280;57046;45.988;18.664;2023-12-28T00:23:31;101613.28;;;6.05;79.71
69772;BME280;57046;45.988;18.664;2023-12-28T00:25:56;101611.41;;;6.06;80.05
69772;BME280;57046;45.988;18.664;2023-12-28T00:28:22;101609.81;;;6.05;79.69
69772;BME280;57046;45.988;18.664;2023-12-28T00:30:47;101584.72;;;5.84;79.32
69772;BME280;57046;45.988;18.664;2023-12-28T00:33:12;101610.53;;;5.95;79.66
69772;BME280;57046;45.988;18.664;2023-12-28T00:35:37;101624.22;;;5.94;79.55
69772;BME280;57046;45.988;18.664;2023-12-28T00:38:03;101612.09;;;5.86;79.16
69772;BME280;57046;45.988;18.664;2023-12-28T00:40:29;101628.47;;;5.90;78.82
69772;BME280;57046;45.988;18.664;2023-12-28T00:42:54;101628.75;;;5.88;78.88
69772;BME280;57046;45.988;18.664;2023-12-28T00:45:20;101612.69;;;5.93;78.84
69772;BME280;57046;45.988;18.664;2023-12-28T00:47:45;101615.63;;;5.92;78.98
69772;BME280;57046;45.988;18.664;2023-12-28T00:50:10;101605.16;;;5.90;79.67
69772;BME280;57046;45.988;18.664;2023-12-28T00:52:36;101605.69;;;5.92;79.42
69772;BME280;57046;45.988;18.664;2023-12-28T00:55:01;101600.31;;;5.87;79.26
69772;BME280;57046;45.988;18.664;2023-12-28T00:57:26;101599.72;;;5.85;79.19
69772;BME280;57046;45.988;18.664;2023-12-28T00:59:52;101607.75;;;5.85;79.45
69772;BME280;57046;45.988;18.664;2023-12-28T01:02:17;101604.06;;;5.86;78.88
69772;BME280;57046;45.988;18.664;2023-12-28T01:04:42;101601.31;;;5.81;79.17
69772;BME280;57046;45.988;18.664;2023-12-28T01:07:08;101591.13;;;5.78;78.65
69772;BME280;57046;45.988;18.664;2023-12-28T01:09:33;101597.25;;;5.74;79.25
69772;BME280;57046;45.988;18.664;2023-12-28T01:11:58;101588.16;;;5.75;79.29
69772;BME280;57046;45.988;18.664;2023-12-28T01:14:24;101593.75;;;5.68;79.21
69772;BME280;57046;45.988;18.664;2023-12-28T01:16:49;101592.69;;;5.74;79.60
69772;BME280;57046;45.988;18.664;2023-12-28T01:19:15;101597.25;;;5.79;79.55
69772;BME280;57046;45.988;18.664;2023-12-28T01:21:40;101601.88;;;5.83;79.71
69772;BME280;57046;45.988;18.664;2023-12-28T01:24:05;101598.13;;;5.84;79.51
69772;BME280;57046;45.988;18.664;2023-12-28T01:26:31;101582.56;;;5.81;79.53
69772;BME280;57046;45.988;18.664;2023-12-28T01:28:56;101599.72;;;5.85;79.44
69772;BME280;57046;45.988;18.664;2023-12-28T01:31:21;101605.06;;;5.80;79.63
69772;BME280;57046;45.988;18.664;2023-12-28T01:33:46;101607.50;;;5.82;79.41
69772;BME280;57046;45.988;18.664;2023-12-28T01:36:18;101590.56;;;5.76;79.57
69772;BME280;57046;45.988;18.664;2023-12-28T01:38:44;101599.38;;;5.72;79.86
69772;BME280;57046;45.988;18.664;2023-12-28T01:41:09;101591.88;;;5.74;79.33
69772;BME280;57046;45.988;18.664;2023-12-28T01:43:35;101593.19;;;5.66;79.54
69772;BME280;57046;45.988;18.664;2023-12-28T01:46:00;101602.06;;;5.72;79.71
69772;BME280;57046;45.988;18.664;2023-12-28T01:48:26;101598.53;;;5.66;80.46
69772;BME280;57046;45.988;18.664;2023-12-28T01:50:52;101598.53;;;5.61;80.72
69772;BME280;57046;45.988;18.664;2023-12-28T01:53:18;101601.50;;;5.70;81.03
69772;BME280;57046;45.988;18.664;2023-12-28T01:55:44;101598.88;;;5.75;81.02
69772;BME280;57046;45.988;18.664;2023-12-28T01:58:10;101602.63;;;5.79;80.90
69772;BME280;57046;45.988;18.664;2023-12-28T02:00:36;101603.97;;;5.76;81.16
69772;BME280;57046;45.988;18.664;2023-12-28T02:03:01;101596.50;;;5.78;80.47
69772;BME280;57046;45.988;18.664;2023-12-28T02:05:27;101603.44;;;5.79;80.71
69772;BME280;57046;45.988;18.664;2023-12-28T02:07:52;101595.63;;;5.73;81.51
69772;BME280;57046;45.988;18.664;2023-12-28T02:10:17;101598.06;;;5.74;81.84
69772;BME280;57046;45.988;18.664;2023-12-28T02:12:43;101590.03;;;5.74;81.98
69772;BME280;57046;45.988;18.664;2023-12-28T02:15:08;101585.72;;;5.73;81.97
69772;BME280;57046;45.988;18.664;2023-12-28T02:18:01;101583.03;;;5.68;82.04
69772;BME280;57046;45.988;18.664;2023-12-28T02:20:29;101583.56;;;5.75;81.69
69772;BME280;57046;45.988;18.664;2023-12-28T02:22:55;101574.22;;;5.78;81.12
69772;BME280;57046;45.988;18.664;2023-12-28T02:25:21;101577.66;;;5.73;81.21
69772;BME280;57046;45.988;18.664;2023-12-28T02:27:47;101560.47;;;5.64;80.75
69772;BME280;57046;45.988;18.664;2023-12-28T02:30:15;101569.63;;;5.68;80.68
69772;BME280;57046;45.988;18.664;2023-12-28T02:35:50;101525.22;;;5.45;79.74
69772;BME280;57046;45.988;18.664;2023-12-28T02:38:17;101555.34;;;5.57;79.87
69772;BME280;57046;45.988;18.664;2023-12-28T02:40:44;101522.19;;;5.32;79.83
69772;BME280;57046;45.988;18.664;2023-12-28T02:43:11;101552.31;;;5.49;79.81
69772;BME280;57046;45.988;18.664;2023-12-28T02:45:38;101542.16;;;5.51;79.79
69772;BME280;57046;45.988;18.664;2023-12-28T02:48:05;101547.53;;;5.51;80.08
69772;BME280;57046;45.988;18.664;2023-12-28T02:50:31;101544.00;;;5.45;80.60
69772;BME280;57046;45.988;18.664;2023-12-28T02:52:57;101538.91;;;5.49;81.06
69772;BME280;57046;45.988;18.664;2023-12-28T02:55:22;101530.88;;;5.49;81.51
69772;BME280;57046;45.988;18.664;2023-12-28T02:57:50;101522.47;;;5.30;81.63
69772;BME280;57046;45.988;18.664;2023-12-28T03:00:15;101537.34;;;5.53;81.67
69772;BME280;57046;45.988;18.664;2023-12-28T03:02:41;101526.13;;;5.61;81.26
69772;BME280;57046;45.988;18.664;2023-12-28T03:05:07;101524.81;;;5.63;81.71
69772;BME280;57046;45.988;18.664;2023-12-28T03:07:35;101524.28;;;5.67;81.48
69772;BME280;57046;45.988;18.664;2023-12-28T03:10:01;101530.41;;;5.62;81.38
69772;BME280;57046;45.988;18.664;2023-12-28T03:12:27;101533.63;;;5.59;82.07
69772;BME280;57046;45.988;18.664;2023-12-28T03:14:53;101536.34;;;5.64;81.85
69772;BME280;57046;45.988;18.664;2023-12-28T03:17:18;101535.25;;;5.65;81.22
69772;BME280;57046;45.988;18.664;2023-12-28T03:19:43;101523.69;;;5.59;81.40
69772;BME280;57046;45.988;18.664;2023-12-28T03:22:09;101518.28;;;5.49;82.39
69772;BME280;57046;45.988;18.664;2023-12-28T03:24:36;101521.50;;;5.51;82.24
69772;BME280;57046;45.988;18.664;2023-12-28T03:27:02;101512.94;;;5.49;81.78
69772;BME280;57046;45.988;18.664;2023-12-28T03:29:27;101516.66;;;5.48;81.30
69772;BME280;57046;45.988;18.664;2023-12-28T03:31:53;101504.31;;;5.42;81.43
69772;BME280;57046;45.988;18.664;2023-12-28T03:34:18;101504.59;;;5.41;81.10
69772;BME280;57046;45.988;18.664;2023-12-28T03:36:43;101504.53;;;5.36;80.55
69772;BME280;57046;45.988;18.664;2023-12-28T03:39:09;101520.03;;;5.29;80.67
69772;BME280;57046;45.988;18.664;2023-12-28T03:41:34;101505.25;;;5.21;80.61
69772;BME280;57046;45.988;18.664;2023-12-28T03:43:59;101521.06;;;5.23;80.56
69772;BME280;57046;45.988;18.664;2023-12-28T03:46:25;101508.97;;;5.15;81.15
69772;BME280;57046;45.988;18.664;2023-12-28T03:48:50;101511.41;;;5.22;80.62
69772;BME280;57046;45.988;18.664;2023-12-28T03:51:16;101502.31;;;5.23;81.16
69772;BME280;57046;45.988;18.664;2023-12-28T03:53:44;101497.44;;;5.14;81.34
69772;BME280;57046;45.988;18.664;2023-12-28T03:56:23;101500.91;;;5.15;81.18
69772;BME280;57046;45.988;18.664;2023-12-28T03:58:49;101486.94;;;5.08;82.04
69772;BME280;57046;45.988;18.664;2023-12-28T04:01:19;101492.56;;;5.06;81.88
69772;BME280;57046;45.988;18.664;2023-12-28T04:03:45;101495.25;;;5.06;81.15
69772;BME280;57046;45.988;18.664;2023-12-28T04:06:10;101489.53;;;4.93;82.24
69772;BME280;57046;45.988;18.664;2023-12-28T04:08:36;101485.19;;;4.87;82.50
69772;BME280;57046;45.988;18.664;2023-12-28T04:11:01;101482.25;;;4.88;83.08
69772;BME280;57046;45.988;18.664;2023-12-28T04:13:26;101500.06;;;4.73;84.71
69772;BME280;57046;45.988;18.664;2023-12-28T04:15:52;101482.78;;;4.85;83.85
69772;BME280;57046;45.988;18.664;2023-12-28T04:18:17;101495.47;;;5.00;84.02
69772;BME280;57046;45.988;18.664;2023-12-28T04:20:43;101495.56;;;5.15;83.50
69772;BME280;57046;45.988;18.664;2023-12-28T04:23:08;101487.88;;;5.29;82.71
69772;BME280;57046;45.988;18.664;2023-12-28T04:25:33;101499.66;;;5.28;82.90
69772;BME280;57046;45.988;18.664;2023-12-28T04:27:59;101492.34;;;5.13;83.45
69772;BME280;57046;45.988;18.664;2023-12-28T04:30:24;101488.88;;;5.18;82.93
69772;BME280;57046;45.988;18.664;2023-12-28T04:32:49;101490.78;;;5.17;81.78
69772;BME280;57046;45.988;18.664;2023-12-28T04:35:14;101498.81;;;5.22;81.70
69772;BME280;57046;45.988;18.664;2023-12-28T04:37:40;101507.63;;;5.18;81.41
69772;BME280;57046;45.988;18.664;2023-12-28T04:40:05;101507.38;;;5.19;80.43
69772;BME280;57046;45.988;18.664;2023-12-28T04:42:31;101508.44;;;5.18;80.14
69772;BME280;57046;45.988;18.664;2023-12-28T04:44:56;101508.66;;;5.11;80.48
69772;BME280;57046;45.988;18.664;2023-12-28T04:47:21;101506.25;;;5.10;79.82
69772;BME280;57046;45.988;18.664;2023-12-28T04:49:47;101504.63;;;5.09;79.72
69772;BME280;57046;45.988;18.664;2023-12-28T04:52:12;101518.56;;;5.11;79.83
69772;BME280;57046;45.988;18.664;2023-12-28T04:54:40;101480.38;;;4.89;79.26
69772;BME280;57046;45.988;18.664;2023-12-28T04:57:06;101518.53;;;5.06;79.35
69772;BME280;57046;45.988;18.664;2023-12-28T04:59:31;101518.50;;;5.01;79.80
69772;BME280;57046;45.988;18.664;2023-12-28T05:01:56;101519.00;;;4.93;79.36
69772;BME280;57046;45.988;18.664;2023-12-28T05:04:22;101512.53;;;4.94;79.41
69772;BME280;57046;45.988;18.664;2023-12-28T05:06:47;101509.28;;;4.87;79.92
69772;BME280;57046;45.988;18.664;2023-12-28T05:09:12;101510.66;;;4.89;79.01
69772;BME280;57046;45.988;18.664;2023-12-28T05:11:37;101512.53;;;4.89;78.94
69772;BME280;57046;45.988;18.664;2023-12-28T05:14:03;101506.00;;;4.80;79.32
69772;BME280;57046;45.988;18.664;2023-12-28T05:16:28;101505.47;;;4.78;78.74
69772;BME280;57046;45.988;18.664;2023-12-28T05:18:53;101507.59;;;4.76;79.48
69772;BME280;57046;45.988;18.664;2023-12-28T05:21:19;101495.03;;;4.76;79.34
69772;BME280;57046;45.988;18.664;2023-12-28T05:23:44;101507.53;;;4.71;78.65
69772;BME280;57046;45.988;18.664;2023-12-28T05:26:09;101515.34;;;4.72;78.88
69772;BME280;57046;45.988;18.664;2023-12-28T05:28:35;101506.72;;;4.70;78.58
69772;BME280;57046;45.988;18.664;2023-12-28T05:31:00;101503.00;;;4.71;79.19
69772;BME280;57046;45.988;18.664;2023-12-28T05:33:25;101507.97;;;4.57;79.86
69772;BME280;57046;45.988;18.664;2023-12-28T05:35:51;101504.03;;;4.65;79.55
69772;BME280;57046;45.988;18.664;2023-12-28T05:38:16;101497.56;;;4.61;79.44
69772;BME280;57046;45.988;18.664;2023-12-28T05:40:42;101495.41;;;4.58;79.98
69772;BME280;57046;45.988;18.664;2023-12-28T05:43:07;101492.22;;;4.61;79.62
69772;BME280;57046;45.988;18.664;2023-12-28T05:45:32;101486.59;;;4.63;80.01
69772;BME280;57046;45.988;18.664;2023-12-28T05:47:58;101491.97;;;4.63;79.73
69772;BME280;57046;45.988;18.664;2023-12-28T05:50:23;101494.38;;;4.64;80.00
69772;BME280;57046;45.988;18.664;2023-12-28T05:52:48;101490.06;;;4.63;79.10
69772;BME280;57046;45.988;18.664;2023-12-28T05:55:14;101481.75;;;4.59;79.71
69772;BME280;57046;45.988;18.664;2023-12-28T05:57:39;101484.47;;;4.65;78.85
69772;BME280;57046;45.988;18.664;2023-12-28T06:00:05;101482.31;;;4.61;79.30
69772;BME280;57046;45.988;18.664;2023-12-28T06:02:30;101478.31;;;4.64;78.65
69772;BME280;57046;45.988;18.664;2023-12-28T06:04:55;101477.03;;;4.40;78.81
69772;BME280;57046;45.988;18.664;2023-12-28T06:07:21;101481.72;;;4.28;80.31
69772;BME280;57046;45.988;18.664;2023-12-28T06:09:46;101481.16;;;4.26;80.78
69772;BME280;57046;45.988;18.664;2023-12-28T06:12:11;101483.63;;;4.32;80.44
69772;BME280;57046;45.988;18.664;2023-12-28T06:14:37;101482.88;;;4.37;79.75
69772;BME280;57046;45.988;18.664;2023-12-28T06:17:02;101492.03;;;4.41;79.61
69772;BME280;57046;45.988;18.664;2023-12-28T06:19:28;101491.50;;;4.44;79.17
69772;BME280;57046;45.988;18.664;2023-12-28T06:21:53;101491.28;;;4.45;78.94
69772;BME280;57046;45.988;18.664;2023-12-28T06:24:18;101489.13;;;4.47;78.25
69772;BME280;57046;45.988;18.664;2023-12-28T06:26:44;101456.13;;;4.10;79.35
69772;BME280;57046;45.988;18.664;2023-12-28T06:29:10;101489.28;;;4.36;79.67
69772;BME280;57046;45.988;18.664;2023-12-28T06:31:36;101489.06;;;4.42;78.81
69772;BME280;57046;45.988;18.664;2023-12-28T06:34:11;101485.84;;;4.40;78.51
69772;BME280;57046;45.988;18.664;2023-12-28T06:36:36;101479.91;;;4.33;79.11
69772;BME280;57046;45.988;18.664;2023-12-28T06:39:01;101479.59;;;4.30;79.09
69772;BME280;57046;45.988;18.664;2023-12-28T06:41:27;101487.63;;;4.30;78.88
69772;BME280;57046;45.988;18.664;2023-12-28T06:43:52;101492.97;;;4.30;79.62
69772;BME280;57046;45.988;18.664;2023-12-28T06:46:18;101493.25;;;4.28;79.38
69772;BME280;57046;45.988;18.664;2023-12-28T06:48:43;101502.56;;;4.26;79.58
69772;BME280;57046;45.988;18.664;2023-12-28T06:51:10;101509.84;;;4.30;79.48
69772;BME280;57046;45.988;18.664;2023-12-28T06:53:35;101509.09;;;4.35;79.42
69772;BME280;57046;45.988;18.664;2023-12-28T06:56:00;101505.69;;;4.44;79.14
69772;BME280;57046;45.988;18.664;2023-12-28T06:58:26;101508.91;;;4.46;79.58
69772;BME280;57046;45.988;18.664;2023-12-28T07:00:51;101516.75;;;4.53;78.83
69772;BME280;57046;45.988;18.664;2023-12-28T07:03:17;101506.25;;;4.46;79.39
69772;BME280;57046;45.988;18.664;2023-12-28T07:05:42;101512.72;;;4.50;78.95
69772;BME280;57046;45.988;18.664;2023-12-28T07:08:08;101518.38;;;4.54;79.61
69772;BME280;57046;45.988;18.664;2023-12-28T07:10:33;101518.38;;;4.54;78.71
69772;BME280;57046;45.988;18.664;2023-12-28T07:12:58;101512.50;;;4.57;79.37
69772;BME280;57046;45.988;18.664;2023-12-28T07:15:23;101518.16;;;4.60;78.53
69772;BME280;57046;45.988;18.664;2023-12-28T07:17:49;101519.56;;;4.68;79.11
69772;BME280;57046;45.988;18.664;2023-12-28T07:20:14;101525.22;;;4.72;79.06
69772;BME280;57046;45.988;18.664;2023-12-28T07:22:39;101528.72;;;4.72;79.07
69772;BME280;57046;45.988;18.664;2023-12-28T07:25:05;101529.47;;;4.68;79.51
69772;BME280;57046;45.988;18.664;2023-12-28T07:27:32;101528.81;;;4.82;80.28
69772;BME280;57046;45.988;18.664;2023-12-28T07:29:57;101525.41;;;4.92;79.74
69772;BME280;57046;45.988;18.664;2023-12-28T07:32:23;101532.66;;;4.96;79.22
69772;BME280;57046;45.988;18.664;2023-12-28T07:34:48;101532.69;;;5.01;79.44
69772;BME280;57046;45.988;18.664;2023-12-28T07:37:13;101535.97;;;5.08;79.36
69772;BME280;57046;45.988;18.664;2023-12-28T07:39:39;101535.75;;;5.15;79.60
69772;BME280;57046;45.988;18.664;2023-12-28T07:42:04;101528.53;;;5.21;80.06
69772;BME280;57046;45.988;18.664;2023-12-28T07:44:29;101536.38;;;5.27;79.66
69772;BME280;57046;45.988;18.664;2023-12-28T07:46:55;101529.72;;;5.35;80.33
69772;BME280;57046;45.988;18.664;2023-12-28T07:49:21;101521.69;;;5.35;80.58
69772;BME280;57046;45.988;18.664;2023-12-28T07:51:47;101528.59;;;5.31;81.26
69772;BME280;57046;45.988;18.664;2023-12-28T07:54:12;101527.38;;;5.43;81.13
69772;BME280;57046;45.988;18.664;2023-12-28T07:56:37;101521.78;;;5.55;81.22
69772;BME280;57046;45.988;18.664;2023-12-28T07:59:02;101517.28;;;5.60;80.76
69772;BME280;57046;45.988;18.664;2023-12-28T08:01:28;101525.38;;;5.71;81.05
69772;BME280;57046;45.988;18.664;2023-12-28T08:03:53;101530.47;;;5.72;80.67
69772;BME280;57046;45.988;18.664;2023-12-28T08:06:18;101525.66;;;5.79;81.27
69772;BME280;57046;45.988;18.664;2023-12-28T08:08:44;101532.72;;;5.90;81.33
69772;BME280;57046;45.988;18.664;2023-12-28T08:11:11;101533.78;;;5.89;82.29
69772;BME280;57046;45.988;18.664;2023-12-28T08:13:37;101544.56;;;5.94;82.71
69772;BME280;57046;45.988;18.664;2023-12-28T08:16:02;101536.22;;;5.91;83.35
69772;BME280;57046;45.988;18.664;2023-12-28T08:18:28;101531.44;;;6.03;84.14
69772;BME280;57046;45.988;18.664;2023-12-28T08:20:53;101535.75;;;6.09;84.10
69772;BME280;57046;45.988;18.664;2023-12-28T08:23:18;101527.19;;;6.17;84.15
69772;BME280;57046;45.988;18.664;2023-12-28T08:25:44;101544.09;;;6.23;84.28
69772;BME280;57046;45.988;18.664;2023-12-28T08:28:09;101546.59;;;6.39;84.13
69772;BME280;57046;45.988;18.664;2023-12-28T08:30:34;101538.25;;;6.36;84.38
69772;BME280;57046;45.988;18.664;2023-12-28T08:33:00;101548.47;;;6.44;84.87
69772;BME280;57046;45.988;18.664;2023-12-28T08:35:25;101552.78;;;6.60;85.76
69772;BME280;57046;45.988;18.664;2023-12-28T08:37:50;101543.97;;;6.80;85.39
69772;BME280;57046;45.988;18.664;2023-12-28T08:40:16;101550.13;;;6.85;85.86
69772;BME280;57046;45.988;18.664;2023-12-28T08:42:41;101545.31;;;6.92;85.84
69772;BME280;57046;45.988;18.664;2023-12-28T08:45:06;101554.97;;;7.08;86.60
69772;BME280;57046;45.988;18.664;2023-12-28T08:47:32;101558.19;;;7.26;85.95
69772;BME280;57046;45.988;18.664;2023-12-28T08:49:57;101545.84;;;7.35;85.66
69772;BME280;57046;45.988;18.664;2023-12-28T08:52:22;101544.75;;;7.41;86.49
69772;BME280;57046;45.988;18.664;2023-12-28T08:54:48;101549.00;;;7.52;86.08
69772;BME280;57046;45.988;18.664;2023-12-28T08:57:13;101550.31;;;7.69;85.79
69772;BME280;57046;45.988;18.664;2023-12-28T08:59:39;101543.03;;;7.80;85.29
69772;BME280;57046;45.988;18.664;2023-12-28T09:02:05;101552.13;;;7.94;84.59
69772;BME280;57046;45.988;18.664;2023-12-28T09:04:31;101546.72;;;7.99;84.25
69772;BME280;57046;45.988;18.664;2023-12-28T09:06:56;101545.03;;;8.13;83.93
69772;BME280;57046;45.988;18.664;2023-12-28T09:09:22;101533.69;;;8.22;84.42
69772;BME280;57046;45.988;18.664;2023-12-28T09:11:47;101524.50;;;8.28;83.74
69772;BME280;57046;45.988;18.664;2023-12-28T09:14:12;101529.84;;;8.38;83.06
69772;BME280;57046;45.988;18.664;2023-12-28T09:16:38;101519.34;;;8.41;82.23
69772;BME280;57046;45.988;18.664;2023-12-28T09:19:03;101522.22;;;8.55;82.33
69772;BME280;57046;45.988;18.664;2023-12-28T09:21:29;101517.84;;;8.64;82.39
69772;BME280;57046;45.988;18.664;2023-12-28T09:23:54;101514.84;;;8.71;81.78
69772;BME280;57046;45.988;18.664;2023-12-28T09:26:19;101524.69;;;8.85;82.11
69772;BME280;57046;45.988;18.664;2023-12-28T09:28:45;101514.63;;;8.96;81.17
69772;BME280;57046;45.988;18.664;2023-12-28T09:31:10;101512.22;;;8.94;81.88
69772;BME280;57046;45.988;18.664;2023-12-28T09:33:36;101509.44;;;9.04;81.91
69772;BME280;57046;45.988;18.664;2023-12-28T09:36:03;101472.38;;;8.91;81.61
69772;BME280;57046;45.988;18.664;2023-12-28T09:38:29;101495.56;;;9.16;81.21
69772;BME280;57046;45.988;18.664;2023-12-28T09:40:54;101498.63;;;9.33;81.42
69772;BME280;57046;45.988;18.664;2023-12-28T09:43:23;101494.28;;;9.37;81.65
69772;BME280;57046;45.988;18.664;2023-12-28T09:45:49;101493.00;;;9.53;81.39
69772;BME280;57046;45.988;18.664;2023-12-28T09:48:16;101492.41;;;9.61;80.68
69772;BME280;57046;45.988;18.664;2023-12-28T09:50:42;101490.97;;;9.69;81.42
69772;BME280;57046;45.988;18.664;2023-12-28T09:53:07;101488.41;;;9.78;80.15
69772;BME280;57046;45.988;18.664;2023-12-28T09:55:32;101481.63;;;9.80;80.72
69772;BME280;57046;45.988;18.664;2023-12-28T09:58:00;101485.09;;;9.86;80.35
69772;BME280;57046;45.988;18.664;2023-12-28T10:00:26;101483.44;;;10.08;80.43
69772;BME280;57046;45.988;18.664;2023-12-28T10:02:52;101474.03;;;10.25;79.62
69772;BME280;57046;45.988;18.664;2023-12-28T10:05:17;101470.69;;;10.33;80.46
69772;BME280;57046;45.988;18.664;2023-12-28T10:07:47;101471.56;;;10.47;79.31
69772;BME280;57046;45.988;18.664;2023-12-28T10:10:13;101459.69;;;10.61;79.72
69772;BME280;57046;45.988;18.664;2023-12-28T10:12:38;101452.59;;;10.65;79.43
69772;BME280;57046;45.988;18.664;2023-12-28T10:15:07;101454.03;;;10.77;79.16
69772;BME280;57046;45.988;18.664;2023-12-28T10:17:33;101441.59;;;10.76;78.86
69772;BME280;57046;45.988;18.664;2023-12-28T10:19:59;101439.06;;;10.98;78.51
69772;BME280;57046;45.988;18.664;2023-12-28T10:22:24;101437.00;;;11.08;77.76
69772;BME280;57046;45.988;18.664;2023-12-28T10:24:49;101435.09;;;11.22;77.37
69772;BME280;57046;45.988;18.664;2023-12-28T10:27:15;101422.25;;;11.28;77.71
69772;BME280;57046;45.988;18.664;2023-12-28T10:29:40;101421.47;;;11.41;77.72
69772;BME280;57046;45.988;18.664;2023-12-28T10:32:06;101420.94;;;11.66;76.89
69772;BME280;57046;45.988;18.664;2023-12-28T10:34:31;101426.03;;;11.68;76.15
69772;BME280;57046;45.988;18.664;2023-12-28T10:36:59;101426.03;;;11.95;75.31
69772;BME280;57046;45.988;18.664;2023-12-28T10:39:24;101430.81;;;11.98;74.20
69772;BME280;57046;45.988;18.664;2023-12-28T10:41:51;101417.25;;;12.12;73.23
69772;BME280;57046;45.988;18.664;2023-12-28T10:44:20;101415.84;;;12.14;73.37
69772;BME280;57046;45.988;18.664;2023-12-28T10:46:50;101414.66;;;12.29;73.44
69772;BME280;57046;45.988;18.664;2023-12-28T10:49:21;101405.38;;;12.44;72.74
69772;BME280;57046;45.988;18.664;2023-12-28T10:51:52;101398.84;;;12.45;73.70
69772;BME280;57046;45.988;18.664;2023-12-28T10:54:43;101392.78;;;12.70;72.27
69772;BME280;57046;45.988;18.664;2023-12-28T11:02:28;101382.84;;;12.96;70.77
69772;BME280;57046;45.988;18.664;2023-12-28T11:04:54;101378.28;;;13.05;70.51
69772;BME280;57046;45.988;18.664;2023-12-28T11:07:21;101383.34;;;13.29;69.73
69772;BME280;57046;45.988;18.664;2023-12-28T11:09:46;101371.84;;;13.41;68.42
69772;BME280;57046;45.988;18.664;2023-12-28T11:12:13;101369.13;;;13.41;68.83
69772;BME280;57046;45.988;18.664;2023-12-28T11:14:42;101362.13;;;13.48;68.71
69772;BME280;57046;45.988;18.664;2023-12-28T11:17:09;101373.97;;;13.61;68.34
69772;BME280;57046;45.988;18.664;2023-12-28T11:19:35;101365.34;;;13.59;68.30
69772;BME280;57046;45.988;18.664;2023-12-28T11:22:03;101357.34;;;13.71;69.05
69772;BME280;57046;45.988;18.664;2023-12-28T11:24:29;101350.19;;;13.92;68.65
69772;BME280;57046;45.988;18.664;2023-12-28T11:26:55;101325.41;;;13.85;69.88
69772;BME280;57046;45.988;18.664;2023-12-28T11:29:21;101341.41;;;14.04;69.52
69772;BME280;57046;45.988;18.664;2023-12-28T11:31:57;101338.66;;;14.12;70.40
69772;BME280;57046;45.988;18.664;2023-12-28T11:34:30;101326.19;;;14.28;69.27
69772;BME280;57046;45.988;18.664;2023-12-28T11:36:58;101312.59;;;14.28;68.91
69772;BME280;57046;45.988;18.664;2023-12-28T11:39:32;101326.63;;;14.48;69.21
69772;BME280;57046;45.988;18.664;2023-12-28T11:42:07;101328.34;;;14.61;69.25
69772;BME280;57046;45.988;18.664;2023-12-28T11:44:43;101328.00;;;14.71;69.37
69772;BME280;57046;45.988;18.664;2023-12-28T11:47:16;101318.53;;;14.77;69.76
69772;BME280;57046;45.988;18.664;2023-12-28T11:49:42;101318.66;;;14.89;70.46
69772;BME280;57046;45.988;18.664;2023-12-28T11:52:09;101326.44;;;14.99;69.64
69772;BME280;57046;45.988;18.664;2023-12-28T11:54:35;101314.84;;;15.11;69.72
69772;BME280;57046;45.988;18.664;2023-12-28T11:57:00;101306.91;;;15.26;69.20
69772;BME280;57046;45.988;18.664;2023-12-28T11:59:25;101314.22;;;15.35;69.46
69772;BME280;57046;45.988;18.664;2023-12-28T12:01:54;101314.34;;;15.38;70.17
69772;BME280;57046;45.988;18.664;2023-12-28T12:04:20;101294.16;;;15.39;70.86
69772;BME280;57046;45.988;18.664;2023-12-28T12:06:47;101301.03;;;15.66;71.03
69772;BME280;57046;45.988;18.664;2023-12-28T12:09:16;101288.44;;;15.61;70.48
69772;BME280;57046;45.988;18.664;2023-12-28T12:11:41;101297.34;;;15.83;70.94
69772;BME280;57046;45.988;18.664;2023-12-28T12:14:10;101295.13;;;15.85;70.45
69772;BME280;57046;45.988;18.664;2023-12-28T12:16:37;101288.88;;;15.84;70.15
69772;BME280;57046;45.988;18.664;2023-12-28T12:19:06;101294.72;;;15.74;70.52
69772;BME280;57046;45.988;18.664;2023-12-28T12:21:32;101283.19;;;15.89;70.56
69772;BME280;57046;45.988;18.664;2023-12-28T12:23:58;101280.28;;;16.06;70.16
69772;BME280;57046;45.988;18.664;2023-12-28T12:26:23;101279.97;;;16.08;68.76
69772;BME280;57046;45.988;18.664;2023-12-28T12:28:48;101277.03;;;16.13;68.67
69772;BME280;57046;45.988;18.664;2023-12-28T12:31:14;101286.47;;;16.15;68.33
69772;BME280;57046;45.988;18.664;2023-12-28T12:33:40;101278.88;;;16.21;68.71
69772;BME280;57046;45.988;18.664;2023-12-28T12:36:06;101273.44;;;16.33;67.47
69772;BME280;57046;45.988;18.664;2023-12-28T12:38:32;101266.59;;;16.27;66.11
69772;BME280;57046;45.988;18.664;2023-12-28T12:40:58;101274.78;;;16.27;65.26
69772;BME280;57046;45.988;18.664;2023-12-28T12:43:23;101270.81;;;16.37;65.71
69772;BME280;57046;45.988;18.664;2023-12-28T12:45:49;101254.56;;;16.40;64.54
69772;BME280;57046;45.988;18.664;2023-12-28T12:48:14;101272.47;;;16.50;65.31
69772;BME280;57046;45.988;18.664;2023-12-28T12:50:40;101273.69;;;16.52;66.00